Racecast

Jacob Williams

RPM Legacy (CA) · 13-14 · PAC · Compare head to head

Athlete rating 122.6 2014 TF season
Best race 126.9 TF
Races 74
Seasons 4 2011 — 2014

RankedNation #2791·CA #215·Team #13 ?

Rating scale ?
Speed rating — all races

Track & Field

TF speed rating

2014 TF 118.4

RPM Legacy (CA) · Grade 13-14

Date Meet Event Result Place Rating Difficulty PR/SR Flags
2014-06-20 USATF Pacific Assoc. Junior Olympics (Top 8) lj 3.77m -0.031
2014-06-20 USATF Pacific Assoc. Junior Olympics (Top 8) 800m 2:30.3 22nd · 2nd on team 120.9 -0.031
2014-06-20 USATF Pacific Assoc. Junior Olympics (Top 8) 200m 27.67 28th · 2nd on team -0.031
2014-06-20 USATF Pacific Assoc. Junior Olympics (Top 8) 400m 59.19 15th · 4th on team -0.031
2014-06-20 USATF Pacific Assoc. Junior Olympics (Top 8) 400m 58.86 13th · 3rd on team -0.031
2014-05-31 Pacific Association Championships (PAC) lj 4.06m -0.024
2014-05-31 Pacific Association Championships (PAC) 400m 58.67 8th · 1st on team -0.024 ★PR SR
2014-05-31 Pacific Association Championships (PAC) 200m 26.78 26th · 2nd on team -0.024 ★PR SR
2014-05-31 Pacific Association Championships (PAC) 800m 2:24.5 17th · 1st on team 126.9 -0.024 ★PR ★R SR RSR
2014-05-25 Los Angeles Jets Invitational lj 3.89m -0.028
2014-05-25 Los Angeles Jets Invitational 800m 2:28.71 35th · 2nd on team 122.6 -0.028 R SR RSR
2014-05-25 Los Angeles Jets Invitational 400m 59.81 31st · 1st on team -0.028 PR SR
2014-05-25 Los Angeles Jets Invitational 200m 27.11 53rd · 2nd on team -0.028 SR
2014-05-18 3M Invitational lj 13-09.00 -0.028
2014-05-18 3M Invitational 800m 2:33.23 15th · 2nd on team 119.2 -0.028 SR RSR
2014-05-18 3M Invitational 400m 1:00.11 3rd · 1st on team -0.028
2014-04-26 Revolution Express TC lj 4.08m -0.024
2014-04-26 Revolution Express TC 800m 2:51.28 15th · 3rd on team 106.5 -0.024
2014-04-26 Revolution Express TC 400m 1:00.01 8th · 2nd on team -0.024 PR SR
2014-04-05 Sacramento Speed Showcase 200m 28.79 17th · 2nd on team -0.033 SR
2014-04-05 Sacramento Speed Showcase 400m 1:01.08 12th · 2nd on team -0.033 SR
2014-04-05 Sacramento Speed Showcase 800m 2:38.69 22nd · 2nd on team 114.3 -0.033 SR RSR
2014-03-22 RPM lj 13-07.50 -0.012
2014-03-22 RPM 400m 1:01.74 14th · 1st on team -0.012 SR
2014-03-22 RPM 100m 14.04 29th · 1st on team -0.012 SR
2014-03-01 RETC Practice Meet lj 12'3" -0.024
2014-03-01 RETC Practice Meet 400m 1:05.9 4th · 1st on team -0.024 SR
2014-03-01 RETC Practice Meet 200m 29.9 6th · 1st on team -0.024 SR

2013 TF 119.6

RPM Legacy (CA) · Grade 13-14

Date Meet Event Result Place Rating Difficulty PR/SR Flags
2013-06-21 Pacific Association Junior Olympics (3-day) lj 4.17m -0.034
2013-06-21 Pacific Association Junior Olympics (3-day) 800m 2:28.19 21st · 2nd on team 121.9 -0.034 PR R SR RSR
2013-06-21 Pacific Association Junior Olympics (3-day) 200m 27.93 30th · 1st on team -0.034
2013-06-21 Pacific Association Junior Olympics (3-day) 400m 1:00.73 21st · 1st on team -0.034
2013-06-08 Pacific Association Youth Championship (PAC) - 2-day meet lj 4.38m -0.024
2013-06-08 Pacific Association Youth Championship (PAC) - 2-day meet 200m 27.95 42nd · 3rd on team -0.024
2013-06-08 Pacific Association Youth Championship (PAC) - 2-day meet 800m 2:35.76 14th · 2nd on team 117.3 -0.024 PR R SR RSR
2013-06-08 Pacific Association Youth Championship (PAC) - 2-day meet 400m 1:00.55 17th · 1st on team -0.024 PR SR
2013-05-18 3M Track Club 400m 1:02.27 16th · 2nd on team -0.028
2013-05-18 3M Track Club 200m 27.6 32nd · 1st on team -0.028
2013-05-04 Hercules / Running Rebels (2-day) 400m 1:01.96 22nd · 2nd on team -0.038
2013-05-04 Hercules / Running Rebels (2-day) 100m 13.17 40th · 1st on team -0.038 ★PR SR
2013-05-04 Hercules / Running Rebels (2-day) 200m 27.44 44th · 2nd on team -0.038
2013-04-27 Revolution Express Track Club 100m 13.54 18th · 2nd on team -0.024 SR
2013-04-27 Revolution Express Track Club 400m 1:01.42 13th · 2nd on team -0.024 PR SR
2013-04-27 Revolution Express Track Club 200m 26.97 16th · 1st on team -0.024 PR SR

2012 TF

RPM Legacy (CA) · Grade 11-12

Date Meet Event Result Place Rating Difficulty PR/SR Flags
2012-07-06 USATF Region 14 Junior Olympic Championships 400m 1:01.74 1st · 1st on team -0.028
2012-07-06 USATF Region 14 Junior Olympic Championships 100m 13.97 20th · 1st on team -0.028
2012-07-06 USATF Region 14 Junior Olympic Championships 200m 27.47 11th · 1st on team -0.028
2012-07-06 USATF Region 14 Junior Olympic Championships 200m 27.65 15th · 2nd on team -0.028
2012-06-16 USATF Region 14 Youth Multi Championships 400m 1:01.74 1st · 1st on team -0.024
2012-06-16 USATF Region 14 Youth Multi Championships 100m 13.97 20th · 1st on team -0.024
2012-06-16 USATF Region 14 Youth Multi Championships 200m 27.47 11th · 1st on team -0.024
2012-06-16 USATF Region 14 Youth Multi Championships 200m 27.65 15th · 2nd on team -0.024
2012-06-09 Pacific Association Youth Championships 200m 27.87 10th · 2nd on team -0.034
2012-06-09 Pacific Association Youth Championships 400m 1:01.46 2nd · 1st on team -0.034 PR SR
2012-06-09 Pacific Association Youth Championships 200m 27.12 6th · 1st on team -0.034
2012-06-09 Pacific Association Youth Championships 100m 13.36 9th · 1st on team -0.034 PR SR
2012-06-09 Pacific Association Youth Championships 100m 13.69 13th · 2nd on team -0.034
2012-05-19 3M Track Meet 200m 27.12 4th · 1st on team -0.031 PR SR
2012-05-19 3M Track Meet 100m 13.68 14th · 1st on team -0.031
2012-05-19 3M Track Meet 400m 1:01.8 3rd · 1st on team -0.031 PR SR
2012-05-05 Hercules Running Rebels / Top Pacers Invitational 400m 1:02.31 4th · 1st on team -0.038 PR SR
2012-05-05 Hercules Running Rebels / Top Pacers Invitational 200m 28.04 9th · 1st on team -0.038 SR
2012-04-21 Shor / Sheppard Classic 400m 1:02.99 5th · 1st on team -0.022 PR SR
2012-04-21 Shor / Sheppard Classic 100m 13.56 8th · 1st on team -0.022 PR SR

2011 TF

RPM Legacy (CA) · Grade 11-12

Date Meet Event Result Place Rating Difficulty PR/SR Flags
2011-07-08 Region 14 USATF Junior Olympic T&F Championships 400m 1:04.37 10th · 2nd on team -0.022 PR SR
2011-07-08 Region 14 USATF Junior Olympic T&F Championships 400m 1:03.19 5th · 1st on team -0.022 PR SR
2011-07-08 Region 14 USATF Junior Olympic T&F Championships 200m 27.9 10th · 1st on team -0.022 PR SR
2011-07-08 Region 14 USATF Junior Olympic T&F Championships 200m 28.05 11th · 2nd on team -0.022
2011-05-27 L.A.Jets Invitational 100m 14.64 42nd · 1st on team -0.034
2011-05-27 L.A.Jets Invitational 200m 30.04 18th · 1st on team -0.034
2011-05-27 L.A.Jets Invitational 400m 1:04.84 22nd · 1st on team -0.034 PR SR
2011-04-15 CA Track Club Invitational Meet 100m 14.36 20th · 1st on team -0.033 PR SR
2011-04-15 CA Track Club Invitational Meet 200m 29.78 21st · 1st on team -0.033 PR SR
2011-04-15 CA Track Club Invitational Meet 400m 1:07.99 16th · 2nd on team -0.033 PR SR